Time;durP1;ratioP1;P1;durP2;ratioP2;P2;SDS_P1;SDS_P2;PMS_P1;PMS_P2;Temp;Humidity;BMP_temperature;BMP_pressure;BME280_temperature;BME280_humidity;BME280_pressure;Samples;Min_cycle;Max_cycle;Signal;HPM_P1;HPM_P2
2023/11/14 00:00:33;;;;;;;4.00;3.60;;;5.80;99.90;;;;;;5060889;28;22235;-72
2023/11/14 00:03:00;;;;;;;4.00;3.70;;;5.70;99.90;;;;;;5059134;28;20251;-73
2023/11/14 00:05:29;;;;;;;4.45;4.15;;;5.70;99.90;;;;;;5064228;28;20255;-73
2023/11/14 00:07:56;;;;;;;3.95;3.65;;;5.70;99.90;;;;;;5043454;28;20206;-73
2023/11/14 00:10:23;;;;;;;3.80;3.50;;;5.70;99.90;;;;;;5042546;28;20276;-73
2023/11/14 00:12:51;;;;;;;4.47;4.18;;;5.60;99.90;;;;;;5044318;28;20210;-73
2023/11/14 00:15:20;;;;;;;3.55;3.33;;;5.60;99.90;;;;;;5061283;28;20547;-74
2023/11/14 00:17:48;;;;;;;3.70;3.50;;;5.60;99.90;;;;;;5043213;28;20658;-73
2023/11/14 00:20:16;;;;;;;3.80;3.50;;;5.60;99.90;;;;;;5044137;28;20195;-74
2023/11/14 00:22:43;;;;;;;3.70;3.50;;;5.60;99.90;;;;;;5059526;28;20210;-73
2023/11/14 00:25:11;;;;;;;3.85;3.55;;;5.50;99.90;;;;;;5058882;28;20198;-74
2023/11/14 00:27:39;;;;;;;4.05;3.75;;;5.50;99.90;;;;;;5060488;28;20210;-73
2023/11/14 00:30:08;;;;;;;4.03;3.72;;;5.50;99.90;;;;;;5062377;28;20313;-73
2023/11/14 00:32:36;;;;;;;3.85;3.55;;;5.40;99.90;;;;;;5059255;28;20227;-73
2023/11/14 00:35:04;;;;;;;3.50;3.30;;;5.40;99.90;;;;;;5061219;28;20248;-71
2023/11/14 00:37:31;;;;;;;4.10;3.70;;;5.40;99.90;;;;;;5059377;28;20194;-72
2023/11/14 00:39:58;;;;;;;3.80;3.60;;;5.40;99.90;;;;;;5059049;28;20659;-72
2023/11/14 00:42:25;;;;;;;3.85;3.65;;;5.40;99.90;;;;;;5057700;28;20219;-72
2023/11/14 00:44:52;;;;;;;3.42;3.22;;;5.40;99.90;;;;;;5058542;28;20255;-72
2023/11/14 00:47:19;;;;;;;3.67;3.47;;;5.50;99.90;;;;;;5058758;28;20205;-72
2023/11/14 00:49:48;;;;;;;3.53;3.33;;;5.50;99.90;;;;;;5060058;28;20680;-72
2023/11/14 00:52:16;;;;;;;4.07;3.88;;;5.50;99.90;;;;;;5058939;28;20218;-72
2023/11/14 00:54:43;;;;;;;4.00;3.78;;;5.60;99.90;;;;;;5063304;28;20206;-72
2023/11/14 00:57:10;;;;;;;3.60;3.38;;;5.60;99.90;;;;;;5061284;28;20279;-72
2023/11/14 00:59:37;;;;;;;3.40;3.20;;;5.60;99.90;;;;;;5062888;28;20244;-72
2023/11/14 01:02:06;;;;;;;3.90;3.60;;;5.50;99.90;;;;;;5061031;28;20225;-72
2023/11/14 01:04:37;;;;;;;3.65;3.45;;;5.50;99.90;;;;;;5062886;28;20206;-72
2023/11/14 01:07:07;;;;;;;3.78;3.47;;;5.50;99.90;;;;;;5061821;28;20198;-71
2023/11/14 01:09:35;;;;;;;3.60;3.40;;;5.50;99.90;;;;;;5060655;28;20645;-72
2023/11/14 01:12:02;;;;;;;3.42;3.13;;;5.40;99.90;;;;;;5061491;28;20229;-72
2023/11/14 01:14:29;;;;;;;3.63;3.42;;;5.40;99.90;;;;;;5059794;28;20280;-72
2023/11/14 01:16:57;;;;;;;3.72;3.53;;;5.40;99.90;;;;;;5060920;28;20202;-72
2023/11/14 01:19:24;;;;;;;4.30;4.00;;;5.40;99.90;;;;;;5059363;28;20199;-73
2023/11/14 01:21:52;;;;;;;3.97;3.67;;;5.40;99.90;;;;;;5061238;28;20276;-72
2023/11/14 01:24:21;;;;;;;3.90;3.63;;;5.40;99.90;;;;;;5058657;28;20210;-71
2023/11/14 01:26:48;;;;;;;3.53;3.22;;;5.40;99.90;;;;;;5063080;28;20365;-72
2023/11/14 01:29:15;;;;;;;3.85;3.65;;;5.40;99.90;;;;;;5044432;28;20949;-72
2023/11/14 01:31:42;;;;;;;3.70;3.50;;;5.40;99.90;;;;;;5060782;28;20230;-72
2023/11/14 01:34:09;;;;;;;3.80;3.60;;;5.40;99.90;;;;;;5061137;28;20721;-72
2023/11/14 01:36:37;;;;;;;3.78;3.47;;;5.50;99.90;;;;;;5061933;28;20263;-72
2023/11/14 01:39:06;;;;;;;3.83;3.53;;;5.50;99.90;;;;;;5062510;28;20458;-72
2023/11/14 01:41:35;;;;;;;3.72;3.50;;;5.50;99.90;;;;;;5058593;28;20283;-72
2023/11/14 01:44:02;;;;;;;4.10;3.80;;;5.40;99.90;;;;;;5044863;28;20785;-72
2023/11/14 01:46:30;;;;;;;4.05;3.75;;;5.60;99.90;;;;;;5043125;28;20616;-72
2023/11/14 01:48:59;;;;;;;3.80;3.50;;;5.70;99.90;;;;;;5061942;28;20260;-72
2023/11/14 01:51:26;;;;;;;3.30;3.10;;;5.70;99.90;;;;;;5062479;28;20218;-73
2023/11/14 01:53:55;;;;;;;4.30;3.90;;;5.70;99.90;;;;;;5064288;28;20202;-73
2023/11/14 01:56:23;;;;;;;3.80;3.40;;;5.70;99.90;;;;;;5062212;28;20195;-73
2023/11/14 01:58:53;;;;;;;4.15;3.85;;;5.70;99.90;;;;;;5042836;28;20285;-72
2023/11/14 02:01:23;;;;;;;3.90;3.60;;;5.80;99.90;;;;;;5059113;28;20892;-72
2023/11/14 02:03:50;;;;;;;3.97;3.67;;;5.80;99.90;;;;;;5045004;28;20851;-73
2023/11/14 02:06:18;;;;;;;3.88;3.47;;;5.80;99.90;;;;;;5059779;28;20205;-73
2023/11/14 02:08:45;;;;;;;3.80;3.50;;;5.80;99.90;;;;;;5063843;28;20202;-73
2023/11/14 02:11:13;;;;;;;8.75;4.20;;;5.80;99.90;;;;;;5060456;28;20225;-73
2023/11/14 02:13:43;;;;;;;3.80;3.60;;;5.80;99.90;;;;;;5062910;28;20213;-72
2023/11/14 02:16:12;;;;;;;3.90;3.60;;;5.70;99.90;;;;;;5043484;28;20194;-73
2023/11/14 02:18:39;;;;;;;3.15;2.95;;;5.70;99.90;;;;;;5060042;28;20234;-72
2023/11/14 02:21:06;;;;;;;3.65;3.45;;;5.70;99.90;;;;;;5062054;28;20594;-73
2023/11/14 02:23:37;;;;;;;3.47;3.25;;;5.80;99.90;;;;;;5062516;28;20248;-73
2023/11/14 02:26:06;;;;;;;3.90;3.60;;;5.80;99.90;;;;;;5060176;28;20202;-73
2023/11/14 02:28:33;;;;;;;3.88;3.58;;;5.80;99.90;;;;;;5044635;28;20247;-72
2023/11/14 02:31:00;;;;;;;4.07;3.67;;;5.70;99.90;;;;;;5060324;28;20287;-72
2023/11/14 02:33:27;;;;;;;3.78;3.47;;;5.70;99.90;;;;;;5058676;28;20280;-73
2023/11/14 02:35:54;;;;;;;3.80;3.50;;;5.70;99.90;;;;;;5062114;28;20202;-72
2023/11/14 02:38:21;;;;;;;4.93;3.47;;;5.70;99.90;;;;;;5060368;28;20203;-73
2023/11/14 02:40:49;;;;;;;3.83;3.53;;;5.80;99.90;;;;;;5063003;28;20291;-73
2023/11/14 02:43:19;;;;;;;3.50;3.30;;;5.80;99.90;;;;;;5063163;28;20248;-73
2023/11/14 02:45:46;;;;;;;3.72;3.42;;;5.80;99.90;;;;;;5062973;28;20212;-72
2023/11/14 02:48:14;;;;;;;3.80;3.58;;;5.90;99.90;;;;;;5058695;28;20202;-73
2023/11/14 02:50:51;;;;;;;3.70;3.40;;;5.80;99.90;;;;;;5059479;28;20253;-73
2023/11/14 02:53:19;;;;;;;4.15;3.75;;;5.80;99.90;;;;;;5063246;28;20204;-72
2023/11/14 02:55:46;;;;;;;3.53;3.33;;;5.90;99.90;;;;;;5060982;28;20202;-73
2023/11/14 02:58:14;;;;;;;3.90;3.60;;;5.90;99.90;;;;;;5061373;28;20198;-73
2023/11/14 03:00:45;;;;;;;3.42;3.22;;;6.00;99.90;;;;;;5060087;28;20636;-73
2023/11/14 03:03:13;;;;;;;3.72;3.42;;;6.00;99.90;;;;;;5059151;28;20315;-73
2023/11/14 03:05:41;;;;;;;4.10;3.80;;;6.00;99.90;;;;;;5059056;28;20203;-72
2023/11/14 03:08:08;;;;;;;4.28;3.97;;;6.00;99.90;;;;;;5062355;28;20190;-73
2023/11/14 03:10:35;;;;;;;3.58;3.28;;;6.00;99.90;;;;;;5062607;28;20609;-72
2023/11/14 03:13:06;;;;;;;4.00;3.70;;;5.90;99.90;;;;;;5059540;28;20226;-73
2023/11/14 03:15:33;;;;;;;4.40;3.97;;;5.90;99.90;;;;;;5062941;28;20203;-73
2023/11/14 03:18:02;;;;;;;4.13;3.83;;;5.90;99.90;;;;;;5044379;28;20776;-72
2023/11/14 03:20:30;;;;;;;3.90;3.70;;;6.00;99.90;;;;;;5060517;28;20275;-73
2023/11/14 03:23:00;;;;;;;3.83;3.63;;;6.00;99.90;;;;;;5059913;28;20251;-72
2023/11/14 03:25:27;;;;;;;3.90;3.65;;;6.10;99.90;;;;;;5060980;28;20720;-72
2023/11/14 03:27:54;;;;;;;3.72;3.53;;;6.10;99.90;;;;;;5056818;28;20206;-73
2023/11/14 03:30:22;;;;;;;4.03;3.72;;;6.10;99.90;;;;;;5060500;28;20937;-73
2023/11/14 03:32:49;;;;;;;3.83;3.58;;;6.10;99.90;;;;;;5040113;28;20218;-72
2023/11/14 03:35:17;;;;;;;4.00;3.70;;;6.10;99.90;;;;;;5061309;28;20256;-72
2023/11/14 03:37:45;;;;;;;4.03;3.72;;;6.00;99.90;;;;;;5063376;28;20256;-73
2023/11/14 03:40:13;;;;;;;4.35;4.05;;;5.90;99.90;;;;;;5061025;28;20195;-72
2023/11/14 03:42:39;;;;;;;3.72;3.42;;;5.90;99.90;;;;;;5044354;28;20617;-73
2023/11/14 03:45:07;;;;;;;4.50;4.20;;;5.90;99.90;;;;;;5064679;28;20606;-72
2023/11/14 03:47:33;;;;;;;3.47;3.28;;;5.90;99.90;;;;;;5061577;28;20221;-73
2023/11/14 03:50:02;;;;;;;3.58;3.35;;;5.80;99.90;;;;;;5066728;28;20198;-72
2023/11/14 03:52:31;;;;;;;8.48;3.70;;;5.80;99.90;;;;;;5063932;28;20275;-73
2023/11/14 03:54:58;;;;;;;3.92;3.65;;;5.80;99.90;;;;;;5066232;28;20207;-72
2023/11/14 03:57:25;;;;;;;3.50;3.30;;;5.80;99.90;;;;;;5046944;28;20194;-73
2023/11/14 03:59:53;;;;;;;4.07;3.70;;;5.80;99.90;;;;;;5063578;28;20252;-72
2023/11/14 04:02:20;;;;;;;4.50;4.10;;;5.80;99.90;;;;;;5046639;28;20306;-73
2023/11/14 04:04:47;;;;;;;3.65;3.40;;;5.80;99.90;;;;;;5067003;28;20271;-73
2023/11/14 04:07:14;;;;;;;3.60;3.40;;;5.80;99.90;;;;;;5064530;28;20248;-73
2023/11/14 04:09:43;;;;;;;4.03;3.72;;;5.80;99.90;;;;;;5063373;28;20289;-73
2023/11/14 04:12:12;;;;;;;3.88;3.67;;;5.90;99.90;;;;;;5044656;28;20321;-72
2023/11/14 04:14:40;;;;;;;3.65;3.45;;;5.90;99.90;;;;;;5063997;28;21020;-73
2023/11/14 04:17:08;;;;;;;3.78;3.47;;;5.80;99.90;;;;;;5063717;28;20734;-73
2023/11/14 04:19:35;;;;;;;3.80;3.45;;;5.80;99.90;;;;;;5048843;28;20203;-73
2023/11/14 04:22:02;;;;;;;3.33;3.13;;;5.80;99.90;;;;;;5044526;28;20214;-72
2023/11/14 04:24:31;;;;;;;3.75;3.55;;;5.80;99.90;;;;;;5065111;28;20195;-72
2023/11/14 04:27:00;;;;;;;3.50;3.30;;;5.90;99.90;;;;;;5064618;28;20572;-73
2023/11/14 04:29:27;;;;;;;3.75;3.45;;;5.90;99.90;;;;;;5062233;28;20634;-73
2023/11/14 04:31:54;;;;;;;3.60;3.30;;;5.90;99.90;;;;;;5065757;28;20283;-73
2023/11/14 04:34:21;;;;;;;3.83;3.53;;;5.90;99.90;;;;;;5062896;28;20210;-73
2023/11/14 04:36:48;;;;;;;3.88;3.58;;;5.90;99.90;;;;;;5046679;28;20282;-72
2023/11/14 04:39:15;;;;;;;3.92;3.63;;;5.90;99.90;;;;;;5064751;28;20232;-73
2023/11/14 04:41:42;;;;;;;3.92;3.63;;;5.90;99.90;;;;;;5062930;28;20218;-73
2023/11/14 04:44:11;;;;;;;4.10;3.80;;;5.90;99.90;;;;;;5060478;28;20204;-73
2023/11/14 04:46:42;;;;;;;3.88;3.67;;;5.90;99.90;;;;;;5062804;28;20209;-73
2023/11/14 04:49:10;;;;;;;3.55;3.35;;;5.90;99.90;;;;;;5062630;28;20206;-73
2023/11/14 04:51:37;;;;;;;3.45;3.25;;;5.90;99.90;;;;;;5063707;28;20253;-72
2023/11/14 04:54:04;;;;;;;4.22;3.85;;;5.90;99.90;;;;;;5061566;28;20589;-72
2023/11/14 04:56:31;;;;;;;5.60;3.50;;;5.80;99.90;;;;;;5060602;28;20201;-72
2023/11/14 04:58:58;;;;;;;4.22;3.75;;;5.70;99.90;;;;;;5062423;28;20270;-72
2023/11/14 05:01:27;;;;;;;4.38;4.07;;;5.60;99.90;;;;;;5041712;28;20305;-72
2023/11/14 05:03:54;;;;;;;4.47;4.10;;;5.60;99.90;;;;;;5061316;28;20206;-72
2023/11/14 05:06:21;;;;;;;6.20;5.70;;;5.50;99.90;;;;;;5061391;28;20726;-73
2023/11/14 05:08:48;;;;;;;6.07;5.57;;;5.50;99.90;;;;;;5060772;28;20265;-72
2023/11/14 05:11:15;;;;;;;5.50;5.00;;;5.40;99.90;;;;;;5064264;28;20230;-72
2023/11/14 05:13:42;;;;;;;5.05;4.75;;;5.40;99.90;;;;;;5064023;28;20294;-72
2023/11/14 05:16:10;;;;;;;4.97;4.57;;;5.30;99.90;;;;;;5059681;28;20194;-72
2023/11/14 05:18:39;;;;;;;4.70;4.40;;;5.30;99.90;;;;;;5061152;28;20293;-72
2023/11/14 05:21:06;;;;;;;4.70;4.30;;;5.40;99.90;;;;;;5060807;28;20252;-73
2023/11/14 05:23:33;;;;;;;4.63;4.32;;;5.40;99.90;;;;;;5063683;28;20244;-72
2023/11/14 05:26:00;;;;;;;4.32;4.03;;;5.40;99.90;;;;;;5062539;28;20202;-72
2023/11/14 05:28:27;;;;;;;4.68;4.32;;;5.30;99.90;;;;;;5060136;28;20195;-73
2023/11/14 05:30:54;;;;;;;4.45;4.15;;;5.40;99.90;;;;;;5060813;28;20222;-71
2023/11/14 05:33:21;;;;;;;3.90;3.60;;;5.50;99.90;;;;;;5042632;28;20296;-72
2023/11/14 05:35:50;;;;;;;4.13;3.90;;;5.50;99.90;;;;;;5060095;28;20251;-72
2023/11/14 05:38:18;;;;;;;4.28;4.00;;;5.40;99.90;;;;;;5062500;28;20198;-73
2023/11/14 05:40:45;;;;;;;4.35;3.95;;;5.40;99.90;;;;;;5062087;28;20281;-72
2023/11/14 05:43:12;;;;;;;4.25;3.85;;;5.30;99.90;;;;;;5063090;28;20252;-71
2023/11/14 05:45:39;;;;;;;4.40;4.10;;;5.30;99.90;;;;;;5062386;28;20202;-73
2023/11/14 05:48:06;;;;;;;4.10;3.85;;;5.20;99.90;;;;;;5061109;28;20672;-73
2023/11/14 05:50:34;;;;;;;4.20;3.90;;;5.20;99.90;;;;;;5062749;28;20788;-72
2023/11/14 05:53:02;;;;;;;3.50;3.30;;;5.20;99.90;;;;;;5058795;28;20217;-72
2023/11/14 05:55:29;;;;;;;4.07;3.78;;;5.10;99.90;;;;;;5060113;28;20251;-71
2023/11/14 05:57:56;;;;;;;3.88;3.58;;;5.10;99.90;;;;;;5042538;28;20329;-73
2023/11/14 06:00:24;;;;;;;4.15;3.85;;;5.10;99.90;;;;;;5059616;28;20203;-73
2023/11/14 06:02:52;;;;;;;4.18;3.88;;;5.10;99.90;;;;;;5045610;28;20931;-73
2023/11/14 06:05:19;;;;;;;4.63;4.32;;;5.10;99.90;;;;;;5060574;28;20283;-73
2023/11/14 06:07:47;;;;;;;4.05;3.63;;;5.10;99.90;;;;;;5062219;28;20678;-73
2023/11/14 06:10:15;;;;;;;3.80;3.60;;;5.00;99.90;;;;;;5063379;28;20848;-73
2023/11/14 06:12:43;;;;;;;3.90;3.70;;;5.00;99.90;;;;;;5043805;28;20222;-73
2023/11/14 06:15:11;;;;;;;4.70;4.30;;;4.90;99.90;;;;;;5063628;28;20205;-73
2023/11/14 06:17:38;;;;;;;3.95;3.65;;;4.90;99.90;;;;;;5044643;28;20244;-72
2023/11/14 06:20:06;;;;;;;3.85;3.55;;;4.80;99.90;;;;;;5043000;28;20256;-72
2023/11/14 06:22:34;;;;;;;3.60;3.40;;;4.80;99.90;;;;;;5061197;28;20217;-72
2023/11/14 06:25:02;;;;;;;3.70;3.50;;;4.80;99.90;;;;;;5061826;28;20206;-72
2023/11/14 06:27:32;;;;;;;3.60;3.40;;;4.90;99.90;;;;;;5061020;28;20272;-73
2023/11/14 06:29:59;;;;;;;4.30;4.00;;;4.90;99.90;;;;;;5061425;28;20295;-72
2023/11/14 06:32:27;;;;;;;3.90;3.63;;;4.90;99.90;;;;;;5042526;28;20221;-72
2023/11/14 06:34:54;;;;;;;4.00;3.80;;;4.90;99.90;;;;;;5061220;28;20213;-73
2023/11/14 06:37:21;;;;;;;3.97;3.67;;;4.90;99.90;;;;;;5056440;28;20591;-71
2023/11/14 06:39:48;;;;;;;4.03;3.83;;;4.90;99.90;;;;;;5057489;28;20287;-73
2023/11/14 06:42:15;;;;;;;4.38;4.07;;;4.80;99.90;;;;;;5057731;28;20912;-73
2023/11/14 06:44:45;;;;;;;4.20;3.90;;;4.80;99.90;;;;;;5057284;28;20202;-72
2023/11/14 06:47:15;;;;;;;4.20;3.90;;;4.70;99.90;;;;;;5054948;28;20207;-73
2023/11/14 06:49:43;;;;;;;5.22;4.82;;;4.70;99.90;;;;;;5056915;28;20228;-73
2023/11/14 06:52:11;;;;;;;4.82;4.43;;;4.70;99.90;;;;;;5038566;28;20675;-73
2023/11/14 06:54:39;;;;;;;5.10;4.70;;;4.70;99.90;;;;;;5040665;28;20205;-72
2023/11/14 06:57:07;;;;;;;4.60;4.22;;;4.60;99.90;;;;;;5055978;28;20209;-72
2023/11/14 06:59:34;;;;;;;4.60;4.28;;;4.60;99.90;;;;;;5056843;28;20793;-73
2023/11/14 07:02:05;;;;;;;4.90;4.38;;;4.60;99.90;;;;;;5057943;28;20214;-72
2023/11/14 07:04:32;;;;;;;3.55;3.35;;;4.70;99.90;;;;;;5056566;28;20285;-72
2023/11/14 07:06:59;;;;;;;4.38;4.07;;;4.70;99.90;;;;;;5052701;28;20206;-72
2023/11/14 07:09:27;;;;;;;3.97;3.67;;;4.80;99.90;;;;;;5059050;28;20279;-73
2023/11/14 07:11:55;;;;;;;4.10;3.83;;;4.90;99.90;;;;;;5061045;28;20226;-72
2023/11/14 07:14:24;;;;;;;3.90;3.65;;;5.00;99.90;;;;;;5040360;28;20297;-72
2023/11/14 07:16:51;;;;;;;4.28;3.97;;;5.00;99.90;;;;;;5058785;28;20201;-73
2023/11/14 07:19:20;;;;;;;4.22;3.83;;;5.10;99.90;;;;;;5043803;28;20285;-72
2023/11/14 07:21:48;;;;;;;4.18;3.83;;;5.20;99.90;;;;;;5058170;28;20242;-72
2023/11/14 07:24:15;;;;;;;4.43;4.13;;;5.30;99.90;;;;;;5057939;28;20244;-73
2023/11/14 07:26:45;;;;;;;4.10;3.80;;;5.40;99.90;;;;;;5061147;28;20254;-73
2023/11/14 07:29:12;;;;;;;4.20;3.90;;;5.50;99.90;;;;;;5061243;28;20198;-73
2023/11/14 07:31:38;;;;;;;4.30;4.00;;;5.70;99.90;;;;;;5061225;28;20218;-73
2023/11/14 07:34:06;;;;;;;4.60;4.20;;;5.70;99.90;;;;;;5062429;28;20221;-73
2023/11/14 07:36:34;;;;;;;4.80;4.40;;;5.80;99.90;;;;;;5060374;28;20198;-72
2023/11/14 07:39:01;;;;;;;5.53;5.13;;;6.00;99.90;;;;;;5061652;28;20303;-72
2023/11/14 07:41:28;;;;;;;5.03;4.47;;;6.30;99.90;;;;;;5057129;28;20214;-73
2023/11/14 07:43:55;;;;;;;5.85;5.32;;;6.70;99.90;;;;;;5043851;28;20199;-72
2023/11/14 07:46:22;;;;;;;6.63;5.22;;;6.60;99.90;;;;;;5060651;28;20203;-72
2023/11/14 07:48:50;;;;;;;5.32;4.82;;;6.50;99.90;;;;;;5059449;28;20259;-71
2023/11/14 07:51:17;;;;;;;6.63;6.03;;;6.30;99.90;;;;;;5040727;28;20610;-73
2023/11/14 07:53:47;;;;;;;6.70;5.93;;;6.20;99.90;;;;;;5059433;28;20222;-73
2023/11/14 07:56:14;;;;;;;6.13;5.53;;;6.10;99.90;;;;;;5060463;28;20205;-72
2023/11/14 07:58:41;;;;;;;6.85;6.15;;;6.30;99.90;;;;;;5060987;28;20232;-73
2023/11/14 08:01:09;;;;;;;5.20;4.80;;;6.90;99.90;;;;;;5057938;28;20895;-71
2023/11/14 08:03:36;;;;;;;6.03;5.38;;;7.90;99.90;;;;;;5041299;28;20207;-71
2023/11/14 08:06:04;;;;;;;5.30;4.80;;;8.70;99.90;;;;;;5041946;28;20264;-73
2023/11/14 08:08:31;;;;;;;6.55;5.25;;;9.30;99.90;;;;;;5059816;28;20203;-72
2023/11/14 08:10:59;;;;;;;12.25;6.32;;;9.90;99.90;;;;;;5056051;28;20225;-72
2023/11/14 08:13:26;;;;;;;9.20;5.30;;;10.50;99.90;;;;;;5057336;28;20272;-70
2023/11/14 08:15:55;;;;;;;5.82;4.72;;;11.00;99.90;;;;;;5056852;28;20570;-72
2023/11/14 08:18:22;;;;;;;4.57;4.18;;;11.40;99.90;;;;;;5058498;28;20845;-72
2023/11/14 08:20:49;;;;;;;4.35;4.03;;;11.90;99.90;;;;;;5043730;28;20310;-73
2023/11/14 08:23:17;;;;;;;5.53;4.13;;;12.10;99.90;;;;;;5057542;28;20760;-73
2023/11/14 08:25:44;;;;;;;4.63;4.22;;;12.40;99.90;;;;;;5057283;28;20264;-73
2023/11/14 08:28:13;;;;;;;4.32;4.03;;;12.70;99.90;;;;;;5040251;28;20199;-74
2023/11/14 08:30:40;;;;;;;3.63;3.33;;;13.00;99.90;;;;;;5038505;28;20280;-73
2023/11/14 08:33:07;;;;;;;4.28;3.88;;;13.40;99.90;;;;;;5059270;28;20242;-75
2023/11/14 08:35:34;;;;;;;4.25;3.85;;;13.60;99.90;;;;;;5056316;28;21999;-73
2023/11/14 08:38:01;;;;;;;4.50;4.10;;;13.50;99.90;;;;;;5058122;28;20206;-74
2023/11/14 08:40:29;;;;;;;4.55;4.15;;;13.50;99.90;;;;;;5058347;28;20214;-73
2023/11/14 08:42:56;;;;;;;4.45;4.05;;;13.40;99.90;;;;;;5056519;28;20209;-73
2023/11/14 08:45:27;;;;;;;4.25;3.85;;;13.50;99.90;;;;;;5039046;28;20735;-72
2023/11/14 08:47:54;;;;;;;5.32;4.20;;;13.50;99.90;;;;;;5059471;28;20695;-72
2023/11/14 08:50:23;;;;;;;4.82;4.30;;;13.70;99.90;;;;;;5055811;28;20616;-73
2023/11/14 08:52:50;;;;;;;4.30;3.90;;;14.00;99.90;;;;;;5058390;28;20222;-73
2023/11/14 08:55:17;;;;;;;4.65;4.25;;;14.10;99.90;;;;;;5058768;28;20732;-72
2023/11/14 08:57:44;;;;;;;5.78;4.10;;;14.30;99.90;;;;;;5055782;28;20244;-72
2023/11/14 09:00:13;;;;;;;4.78;4.35;;;14.40;99.90;;;;;;5055725;28;20205;-72
2023/11/14 09:02:41;;;;;;;6.82;4.65;;;14.20;99.90;;;;;;5054588;28;20241;-71
2023/11/14 09:05:10;;;;;;;6.82;4.45;;;14.70;99.90;;;;;;5057894;28;20662;-71
2023/11/14 09:07:37;;;;;;;5.60;4.18;;;15.70;99.90;;;;;;5057520;28;20210;-73
2023/11/14 09:10:05;;;;;;;8.65;4.80;;;17.10;99.90;;;;;;5055867;28;20206;-73
2023/11/14 09:12:33;;;;;;;4.35;3.90;;;18.70;99.90;;;;;;5058923;28;20230;-71
2023/11/14 09:15:00;;;;;;;4.80;4.25;;;20.30;99.90;;;;;;5056740;28;21030;-72
2023/11/14 09:17:27;;;;;;;4.80;4.40;;;21.70;99.90;;;;;;5039790;28;20206;-73
2023/11/14 09:19:58;;;;;;;6.32;4.38;;;22.30;99.90;;;;;;5054245;28;20202;-71
2023/11/14 09:22:28;;;;;;;6.05;4.85;;;22.10;99.90;;;;;;5055630;28;20214;-72
2023/11/14 09:24:56;;;;;;;6.90;4.88;;;21.20;99.90;;;;;;5056010;28;20197;-73
2023/11/14 09:27:24;;;;;;;7.20;4.07;;;20.10;99.90;;;;;;5056558;28;20210;-73
2023/11/14 09:29:51;;;;;;;4.65;4.25;;;19.00;99.90;;;;;;5055426;28;20680;-72
2023/11/14 09:32:19;;;;;;;4.88;3.97;;;18.00;99.90;;;;;;5055477;28;20896;-72
2023/11/14 09:34:47;;;;;;;4.75;4.00;;;17.50;99.90;;;;;;5040633;28;20217;-72
2023/11/14 09:37:16;;;;;;;6.80;4.53;;;17.00;99.90;;;;;;5055202;28;20290;-73
2023/11/14 09:39:43;;;;;;;7.43;4.78;;;16.50;99.90;;;;;;5050481;28;20214;-72
2023/11/14 09:42:10;;;;;;;4.13;3.72;;;16.20;99.90;;;;;;5056563;28;20214;-73
2023/11/14 09:44:38;;;;;;;4.28;3.88;;;16.10;99.90;;;;;;5042040;28;20202;-73
2023/11/14 09:47:08;;;;;;;4.30;3.90;;;16.00;99.90;;;;;;5040420;28;20198;-71
2023/11/14 09:49:35;;;;;;;4.97;4.50;;;15.70;99.90;;;;;;5056198;28;20210;-71
2023/11/14 09:52:03;;;;;;;4.57;4.05;;;15.70;99.90;;;;;;5057110;28;20953;-72
2023/11/14 09:54:32;;;;;;;4.25;3.80;;;15.90;99.90;;;;;;5056728;28;20249;-72
2023/11/14 09:56:59;;;;;;;5.43;4.20;;;16.30;99.90;;;;;;5038854;28;20194;-72
2023/11/14 09:59:28;;;;;;;4.35;3.95;;;16.40;99.90;;;;;;5057239;28;20190;-72
2023/11/14 10:01:55;;;;;;;4.97;3.72;;;16.30;99.90;;;;;;5055637;28;20275;-72
2023/11/14 10:04:22;;;;;;;4.25;3.83;;;16.40;99.90;;;;;;5055580;28;20203;-73
2023/11/14 10:06:51;;;;;;;4.47;4.07;;;16.40;99.90;;;;;;5054298;28;20820;-71
2023/11/14 10:09:19;;;;;;;4.28;3.97;;;16.00;99.90;;;;;;5057553;28;20213;-73
2023/11/14 10:11:49;;;;;;;4.03;3.63;;;16.10;99.90;;;;;;5057635;28;20222;-73
2023/11/14 10:14:18;;;;;;;4.82;3.65;;;16.30;99.90;;;;;;5057104;28;20210;-72
2023/11/14 10:16:45;;;;;;;3.97;3.67;;;16.50;99.90;;;;;;5054646;28;20210;-72
2023/11/14 10:19:14;;;;;;;3.60;3.30;;;16.80;99.90;;;;;;5055811;28;20202;-72
2023/11/14 10:21:42;;;;;;;4.55;3.88;;;17.00;99.90;;;;;;5036970;28;20276;-72
2023/11/14 10:24:13;;;;;;;4.15;3.75;;;17.10;99.90;;;;;;5055605;28;20217;-72
2023/11/14 10:26:52;;;;;;;4.40;3.75;;;17.00;99.90;;;;;;5038234;28;20204;-72
2023/11/14 10:29:20;;;;;;;3.78;3.35;;;17.00;99.90;;;;;;5055576;28;20676;-72
2023/11/14 10:31:48;;;;;;;3.40;3.03;;;16.90;99.90;;;;;;5057816;28;20222;-72
2023/11/14 10:34:34;;;;;;;3.88;3.47;;;16.60;99.90;;;;;;5053702;28;20267;-72
2023/11/14 10:37:02;;;;;;;7.93;3.30;;;16.30;99.90;;;;;;5056354;28;20302;-72
2023/11/14 10:39:30;;;;;;;3.67;3.38;;;16.00;99.90;;;;;;5053844;28;20210;-70
2023/11/14 10:42:09;;;;;;;3.45;3.15;;;15.80;99.90;;;;;;5057690;28;20308;-72
2023/11/14 10:44:38;;;;;;;3.90;3.58;;;15.70;99.90;;;;;;5059241;28;20203;-73
2023/11/14 10:47:07;;;;;;;3.97;3.40;;;15.60;99.90;;;;;;5059733;28;20206;-71
2023/11/14 10:49:46;;;;;;;4.05;3.65;;;15.60;99.90;;;;;;5044749;28;20680;-72
2023/11/14 10:52:15;;;;;;;5.80;3.50;;;16.00;99.90;;;;;;5061363;28;20294;-72
2023/11/14 10:54:43;;;;;;;3.80;3.50;;;16.20;99.90;;;;;;5061658;28;20279;-71
2023/11/14 10:57:13;;;;;;;4.10;3.67;;;16.30;99.90;;;;;;5060939;28;20206;-72
2023/11/14 10:59:42;;;;;;;4.75;3.80;;;16.30;99.90;;;;;;5041320;28;20198;-72
2023/11/14 11:02:10;;;;;;;4.07;3.67;;;16.50;99.90;;;;;;5059616;28;20283;-72
2023/11/14 11:04:38;;;;;;;4.38;3.97;;;16.70;99.90;;;;;;5059565;28;20234;-72
2023/11/14 11:07:06;;;;;;;6.07;3.78;;;16.50;99.90;;;;;;5027675;28;20284;-72
2023/11/14 11:09:34;;;;;;;4.40;4.00;;;16.60;99.90;;;;;;5042423;28;21051;-72
2023/11/14 11:12:02;;;;;;;4.65;3.90;;;16.70;99.90;;;;;;5058616;28;20961;-72
2023/11/14 11:14:31;;;;;;;5.00;4.22;;;16.90;99.90;;;;;;5060656;28;20267;-73
2023/11/14 11:17:00;;;;;;;4.68;4.15;;;17.30;99.90;;;;;;5060792;28;20707;-72
2023/11/14 11:19:29;;;;;;;4.63;4.10;;;17.70;99.90;;;;;;5061751;28;20207;-72
2023/11/14 11:22:06;;;;;;;4.28;3.88;;;17.80;99.90;;;;;;5040384;28;20230;-72
2023/11/14 11:24:35;;;;;;;4.97;4.18;;;17.30;99.90;;;;;;5062604;28;20336;-73
2023/11/14 11:27:12;;;;;;;5.15;3.58;;;17.00;99.90;;;;;;5042280;28;20810;-72
2023/11/14 11:30:04;;;;;;;5.70;3.85;;;16.70;99.90;;;;;;5045386;28;20200;-72
2023/11/14 11:32:33;;;;;;;4.65;4.18;;;16.70;99.90;;;;;;5061313;28;20675;-73
2023/11/14 11:35:34;;;;;;;6.32;3.30;;;16.60;99.90;;;;;;5059247;28;20222;-72
2023/11/14 11:38:09;;;;;;;3.67;3.38;;;16.50;99.90;;;;;;5040319;28;20221;-72
2023/11/14 11:40:37;;;;;;;4.97;4.00;;;16.40;99.90;;;;;;5062158;28;20699;-72
2023/11/14 11:43:22;;;;;;;3.92;3.60;;;16.40;99.90;;;;;;5056878;28;20190;-72
2023/11/14 11:45:51;;;;;;;4.07;3.67;;;16.90;99.90;;;;;;5055877;28;20275;-73
2023/11/14 11:48:30;;;;;;;4.35;3.58;;;16.80;99.90;;;;;;5040985;28;20290;-73
2023/11/14 11:51:18;;;;;;;3.78;3.42;;;16.80;99.90;;;;;;5059237;28;20214;-73
2023/11/14 11:53:46;;;;;;;4.15;3.75;;;17.00;99.90;;;;;;5041540;28;20231;-72
2023/11/14 11:56:34;;;;;;;3.72;3.42;;;17.00;99.90;;;;;;5060063;28;20206;-73
2023/11/14 11:59:02;;;;;;;3.63;3.33;;;16.90;99.90;;;;;;5059104;28;20209;-72
2023/11/14 12:01:31;;;;;;;3.95;3.05;;;16.80;99.90;;;;;;5055950;28;20234;-73
2023/11/14 12:03:58;;;;;;;4.13;3.72;;;16.50;99.90;;;;;;5061502;28;20259;-73
2023/11/14 12:06:26;;;;;;;4.75;3.60;;;16.40;99.90;;;;;;5057108;28;20297;-72
2023/11/14 12:08:54;;;;;;;7.43;4.30;;;16.60;99.90;;;;;;5041378;28;20909;-71
2023/11/14 12:11:22;;;;;;;3.47;3.17;;;16.90;99.90;;;;;;5037062;28;20211;-73
2023/11/14 12:13:53;;;;;;;4.80;3.45;;;17.20;99.90;;;;;;5059391;28;20230;-72
2023/11/14 12:16:21;;;;;;;3.90;3.60;;;17.00;99.90;;;;;;5056267;28;20204;-72
2023/11/14 12:18:50;;;;;;;4.47;3.42;;;16.70;99.90;;;;;;5024381;28;20202;-71
2023/11/14 12:21:18;;;;;;;4.25;3.63;;;16.70;99.90;;;;;;5059033;28;20631;-73
2023/11/14 12:23:46;;;;;;;3.42;3.13;;;16.90;99.90;;;;;;5056386;28;20325;-72
2023/11/14 12:26:13;;;;;;;4.07;3.25;;;16.80;99.90;;;;;;5056689;28;20800;-72
2023/11/14 12:28:41;;;;;;;3.28;2.97;;;16.90;99.90;;;;;;5060535;28;20202;-73
2023/11/14 12:31:11;;;;;;;3.60;3.30;;;16.80;99.90;;;;;;5038785;28;20284;-72
2023/11/14 12:33:45;;;;;;;3.50;3.20;;;16.70;99.90;;;;;;5056751;28;20237;-73
2023/11/14 12:36:23;;;;;;;5.00;3.20;;;16.30;99.90;;;;;;5040099;28;20213;-72
2023/11/14 12:38:51;;;;;;;5.10;2.92;;;16.30;99.90;;;;;;5054217;28;20665;-73
2023/11/14 12:41:24;;;;;;;3.60;3.30;;;16.20;99.90;;;;;;5057342;28;20226;-71
2023/11/14 12:43:53;;;;;;;3.38;3.05;;;16.20;99.90;;;;;;5057209;28;20281;-71
2023/11/14 12:46:25;;;;;;;3.70;3.40;;;16.20;99.90;;;;;;5058685;28;20210;-73
2023/11/14 12:49:12;;;;;;;3.60;3.25;;;15.90;99.90;;;;;;5054571;28;20222;-71
2023/11/14 12:51:43;;;;;;;3.30;3.10;;;15.80;99.90;;;;;;5058582;28;20275;-73
2023/11/14 12:54:10;;;;;;;3.58;3.13;;;15.70;99.90;;;;;;5039587;28;20257;-73
2023/11/14 12:56:38;;;;;;;3.72;2.97;;;15.60;99.90;;;;;;5056659;28;20198;-72
2023/11/14 12:59:07;;;;;;;4.68;2.90;;;15.70;99.90;;;;;;5040888;28;20191;-71